sensor_id;sensor_type;location;lat;lon;timestamp;P1;durP1;ratioP1;P2;durP2;ratioP2
17228;SDS011;8731;50.364;8.958;2023-06-04T00:03:54;2.90;;;1.53;;
17228;SDS011;8731;50.364;8.958;2023-06-04T00:08:17;3.33;;;1.37;;
17228;SDS011;8731;50.364;8.958;2023-06-04T00:12:39;4.80;;;1.73;;
17228;SDS011;8731;50.364;8.958;2023-06-04T00:17:01;2.70;;;1.50;;
17228;SDS011;8731;50.364;8.958;2023-06-04T00:21:26;1.63;;;1.13;;
17228;SDS011;8731;50.364;8.958;2023-06-04T00:25:48;1.73;;;1.20;;
17228;SDS011;8731;50.364;8.958;2023-06-04T00:30:11;1.43;;;1.27;;
17228;SDS011;8731;50.364;8.958;2023-06-04T00:34:36;2.57;;;1.50;;
17228;SDS011;8731;50.364;8.958;2023-06-04T00:39:00;3.43;;;1.20;;
17228;SDS011;8731;50.364;8.958;2023-06-04T00:43:22;4.70;;;1.40;;
17228;SDS011;8731;50.364;8.958;2023-06-04T00:47:47;3.97;;;1.53;;
17228;SDS011;8731;50.364;8.958;2023-06-04T00:52:09;2.83;;;1.40;;
17228;SDS011;8731;50.364;8.958;2023-06-04T00:56:35;3.47;;;1.60;;
17228;SDS011;8731;50.364;8.958;2023-06-04T01:00:59;4.00;;;1.70;;
17228;SDS011;8731;50.364;8.958;2023-06-04T01:05:26;4.13;;;1.77;;
17228;SDS011;8731;50.364;8.958;2023-06-04T01:09:57;2.87;;;1.40;;
17228;SDS011;8731;50.364;8.958;2023-06-04T01:14:23;3.40;;;1.67;;
17228;SDS011;8731;50.364;8.958;2023-06-04T01:18:46;4.23;;;1.20;;
17228;SDS011;8731;50.364;8.958;2023-06-04T01:23:14;1.47;;;1.17;;
17228;SDS011;8731;50.364;8.958;2023-06-04T01:27:54;5.43;;;1.60;;
17228;SDS011;8731;50.364;8.958;2023-06-04T01:32:19;2.43;;;1.40;;
17228;SDS011;8731;50.364;8.958;2023-06-04T01:36:42;3.87;;;1.53;;
17228;SDS011;8731;50.364;8.958;2023-06-04T01:41:05;3.07;;;1.60;;
17228;SDS011;8731;50.364;8.958;2023-06-04T01:45:28;2.50;;;1.50;;
17228;SDS011;8731;50.364;8.958;2023-06-04T01:49:52;7.07;;;1.57;;
17228;SDS011;8731;50.364;8.958;2023-06-04T01:54:16;3.07;;;1.60;;
17228;SDS011;8731;50.364;8.958;2023-06-04T01:58:39;3.00;;;1.57;;
17228;SDS011;8731;50.364;8.958;2023-06-04T02:03:02;2.47;;;1.60;;
17228;SDS011;8731;50.364;8.958;2023-06-04T02:07:27;3.23;;;1.50;;
17228;SDS011;8731;50.364;8.958;2023-06-04T02:11:51;3.13;;;1.60;;
17228;SDS011;8731;50.364;8.958;2023-06-04T02:16:14;2.47;;;1.23;;
17228;SDS011;8731;50.364;8.958;2023-06-04T02:20:36;2.33;;;1.40;;
17228;SDS011;8731;50.364;8.958;2023-06-04T02:25:00;3.37;;;1.33;;
17228;SDS011;8731;50.364;8.958;2023-06-04T02:29:23;1.90;;;1.43;;
17228;SDS011;8731;50.364;8.958;2023-06-04T02:33:46;3.50;;;1.60;;
17228;SDS011;8731;50.364;8.958;2023-06-04T02:38:09;1.90;;;1.53;;
17228;SDS011;8731;50.364;8.958;2023-06-04T02:42:33;1.90;;;1.50;;
17228;SDS011;8731;50.364;8.958;2023-06-04T02:46:55;4.97;;;1.70;;
17228;SDS011;8731;50.364;8.958;2023-06-04T02:51:18;1.97;;;1.57;;
17228;SDS011;8731;50.364;8.958;2023-06-04T02:55:42;3.77;;;1.93;;
17228;SDS011;8731;50.364;8.958;2023-06-04T03:00:08;3.13;;;1.73;;
17228;SDS011;8731;50.364;8.958;2023-06-04T03:04:33;3.43;;;1.50;;
17228;SDS011;8731;50.364;8.958;2023-06-04T03:08:56;3.43;;;1.70;;
17228;SDS011;8731;50.364;8.958;2023-06-04T03:13:19;4.23;;;1.77;;
17228;SDS011;8731;50.364;8.958;2023-06-04T03:17:43;2.40;;;1.70;;
17228;SDS011;8731;50.364;8.958;2023-06-04T03:22:06;2.20;;;1.50;;
17228;SDS011;8731;50.364;8.958;2023-06-04T03:26:30;3.97;;;1.80;;
17228;SDS011;8731;50.364;8.958;2023-06-04T03:30:54;3.10;;;2.00;;
17228;SDS011;8731;50.364;8.958;2023-06-04T03:35:21;4.73;;;1.47;;
17228;SDS011;8731;50.364;8.958;2023-06-04T03:39:44;2.27;;;1.43;;
17228;SDS011;8731;50.364;8.958;2023-06-04T03:44:09;4.60;;;1.60;;
17228;SDS011;8731;50.364;8.958;2023-06-04T03:48:35;3.67;;;1.70;;
17228;SDS011;8731;50.364;8.958;2023-06-04T03:53:00;4.50;;;2.00;;
17228;SDS011;8731;50.364;8.958;2023-06-04T03:57:25;3.60;;;1.73;;
17228;SDS011;8731;50.364;8.958;2023-06-04T04:01:48;2.47;;;1.57;;
17228;SDS011;8731;50.364;8.958;2023-06-04T04:06:11;3.73;;;1.73;;
17228;SDS011;8731;50.364;8.958;2023-06-04T04:10:36;2.03;;;1.57;;
17228;SDS011;8731;50.364;8.958;2023-06-04T04:14:59;3.70;;;1.97;;
17228;SDS011;8731;50.364;8.958;2023-06-04T04:19:21;2.40;;;1.37;;
17228;SDS011;8731;50.364;8.958;2023-06-04T04:23:44;2.23;;;1.53;;
17228;SDS011;8731;50.364;8.958;2023-06-04T04:28:11;4.30;;;1.63;;
17228;SDS011;8731;50.364;8.958;2023-06-04T04:32:35;3.53;;;2.17;;
17228;SDS011;8731;50.364;8.958;2023-06-04T04:37:00;1.83;;;1.37;;
17228;SDS011;8731;50.364;8.958;2023-06-04T04:41:23;2.93;;;1.80;;
17228;SDS011;8731;50.364;8.958;2023-06-04T04:45:49;2.97;;;1.70;;
17228;SDS011;8731;50.364;8.958;2023-06-04T04:50:11;3.43;;;1.70;;
17228;SDS011;8731;50.364;8.958;2023-06-04T04:54:34;1.83;;;1.37;;
17228;SDS011;8731;50.364;8.958;2023-06-04T04:58:58;2.90;;;1.70;;
17228;SDS011;8731;50.364;8.958;2023-06-04T05:03:22;2.50;;;1.70;;
17228;SDS011;8731;50.364;8.958;2023-06-04T05:07:45;3.60;;;1.53;;
17228;SDS011;8731;50.364;8.958;2023-06-04T05:12:11;3.23;;;2.00;;
17228;SDS011;8731;50.364;8.958;2023-06-04T05:16:34;1.83;;;1.70;;
17228;SDS011;8731;50.364;8.958;2023-06-04T05:21:00;3.43;;;1.90;;
17228;SDS011;8731;50.364;8.958;2023-06-04T05:25:25;3.37;;;1.87;;
17228;SDS011;8731;50.364;8.958;2023-06-04T05:29:49;3.63;;;2.00;;
17228;SDS011;8731;50.364;8.958;2023-06-04T05:34:12;1.97;;;1.50;;
17228;SDS011;8731;50.364;8.958;2023-06-04T05:38:39;1.93;;;1.77;;
17228;SDS011;8731;50.364;8.958;2023-06-04T05:43:05;3.03;;;1.73;;
17228;SDS011;8731;50.364;8.958;2023-06-04T05:47:28;2.50;;;1.80;;
17228;SDS011;8731;50.364;8.958;2023-06-04T05:51:52;3.70;;;1.90;;
17228;SDS011;8731;50.364;8.958;2023-06-04T05:56:16;4.47;;;1.80;;
17228;SDS011;8731;50.364;8.958;2023-06-04T06:00:39;3.17;;;1.80;;
17228;SDS011;8731;50.364;8.958;2023-06-04T06:05:04;3.17;;;1.50;;
17228;SDS011;8731;50.364;8.958;2023-06-04T06:09:28;2.47;;;1.70;;
17228;SDS011;8731;50.364;8.958;2023-06-04T06:13:52;4.17;;;1.93;;
17228;SDS011;8731;50.364;8.958;2023-06-04T06:18:15;3.67;;;1.50;;
17228;SDS011;8731;50.364;8.958;2023-06-04T06:22:38;3.10;;;1.60;;
17228;SDS011;8731;50.364;8.958;2023-06-04T06:27:01;3.00;;;1.60;;
17228;SDS011;8731;50.364;8.958;2023-06-04T06:31:27;3.43;;;1.90;;
17228;SDS011;8731;50.364;8.958;2023-06-04T06:35:49;3.10;;;1.73;;
17228;SDS011;8731;50.364;8.958;2023-06-04T06:40:13;3.10;;;1.70;;
17228;SDS011;8731;50.364;8.958;2023-06-04T06:44:36;3.67;;;1.50;;
17228;SDS011;8731;50.364;8.958;2023-06-04T06:49:00;3.20;;;1.97;;
17228;SDS011;8731;50.364;8.958;2023-06-04T06:53:23;4.77;;;1.60;;
17228;SDS011;8731;50.364;8.958;2023-06-04T06:57:46;2.10;;;1.60;;
17228;SDS011;8731;50.364;8.958;2023-06-04T07:02:09;2.20;;;1.67;;
17228;SDS011;8731;50.364;8.958;2023-06-04T07:06:33;4.90;;;1.83;;
17228;SDS011;8731;50.364;8.958;2023-06-04T07:10:57;4.90;;;1.90;;
17228;SDS011;8731;50.364;8.958;2023-06-04T07:15:20;4.93;;;1.77;;
17228;SDS011;8731;50.364;8.958;2023-06-04T07:19:42;2.97;;;1.50;;
17228;SDS011;8731;50.364;8.958;2023-06-04T07:24:06;3.43;;;1.57;;
17228;SDS011;8731;50.364;8.958;2023-06-04T07:28:29;1.70;;;1.33;;
17228;SDS011;8731;50.364;8.958;2023-06-04T07:32:52;2.67;;;1.33;;
17228;SDS011;8731;50.364;8.958;2023-06-04T07:37:15;2.37;;;1.60;;
17228;SDS011;8731;50.364;8.958;2023-06-04T07:41:39;2.43;;;1.70;;
17228;SDS011;8731;50.364;8.958;2023-06-04T07:46:01;3.03;;;1.40;;
17228;SDS011;8731;50.364;8.958;2023-06-04T07:50:24;2.58;;;1.50;;
17228;SDS011;8731;50.364;8.958;2023-06-04T07:54:46;1.88;;;1.30;;
17228;SDS011;8731;50.364;8.958;2023-06-04T07:59:11;1.60;;;1.20;;
17228;SDS011;8731;50.364;8.958;2023-06-04T08:03:34;1.92;;;1.30;;
17228;SDS011;8731;50.364;8.958;2023-06-04T08:07:57;1.60;;;1.42;;
17228;SDS011;8731;50.364;8.958;2023-06-04T08:12:20;2.17;;;1.42;;
17228;SDS011;8731;50.364;8.958;2023-06-04T08:16:49;2.25;;;1.33;;
17228;SDS011;8731;50.364;8.958;2023-06-04T08:21:14;3.22;;;1.33;;
17228;SDS011;8731;50.364;8.958;2023-06-04T08:25:46;2.55;;;1.38;;
17228;SDS011;8731;50.364;8.958;2023-06-04T08:30:08;2.63;;;1.35;;
17228;SDS011;8731;50.364;8.958;2023-06-04T08:34:33;2.28;;;1.35;;
17228;SDS011;8731;50.364;8.958;2023-06-04T08:38:56;1.55;;;0.95;;
17228;SDS011;8731;50.364;8.958;2023-06-04T08:43:20;1.92;;;1.20;;
17228;SDS011;8731;50.364;8.958;2023-06-04T08:47:44;2.97;;;1.20;;
17228;SDS011;8731;50.364;8.958;2023-06-04T08:52:12;2.92;;;1.30;;
17228;SDS011;8731;50.364;8.958;2023-06-04T08:56:35;2.15;;;1.20;;
17228;SDS011;8731;50.364;8.958;2023-06-04T09:00:58;1.88;;;1.00;;
17228;SDS011;8731;50.364;8.958;2023-06-04T09:05:22;1.80;;;1.15;;
17228;SDS011;8731;50.364;8.958;2023-06-04T09:09:47;2.40;;;1.45;;
17228;SDS011;8731;50.364;8.958;2023-06-04T09:14:14;3.05;;;1.40;;
17228;SDS011;8731;50.364;8.958;2023-06-04T09:18:37;1.92;;;1.20;;
17228;SDS011;8731;50.364;8.958;2023-06-04T09:23:00;3.25;;;1.40;;
17228;SDS011;8731;50.364;8.958;2023-06-04T09:27:38;3.17;;;1.38;;
17228;SDS011;8731;50.364;8.958;2023-06-04T09:32:02;3.10;;;1.20;;
17228;SDS011;8731;50.364;8.958;2023-06-04T09:36:29;1.63;;;1.38;;
17228;SDS011;8731;50.364;8.958;2023-06-04T09:40:53;5.55;;;1.45;;
17228;SDS011;8731;50.364;8.958;2023-06-04T09:45:27;2.90;;;1.33;;
17228;SDS011;8731;50.364;8.958;2023-06-04T09:49:51;1.50;;;1.38;;
17228;SDS011;8731;50.364;8.958;2023-06-04T09:54:16;2.90;;;1.20;;
17228;SDS011;8731;50.364;8.958;2023-06-04T09:58:39;3.30;;;1.20;;
17228;SDS011;8731;50.364;8.958;2023-06-04T10:03:06;2.10;;;1.27;;
17228;SDS011;8731;50.364;8.958;2023-06-04T10:07:37;1.60;;;1.30;;
17228;SDS011;8731;50.364;8.958;2023-06-04T10:12:03;1.45;;;1.33;;
17228;SDS011;8731;50.364;8.958;2023-06-04T10:16:28;1.70;;;1.25;;
17228;SDS011;8731;50.364;8.958;2023-06-04T10:20:57;2.20;;;1.33;;
17228;SDS011;8731;50.364;8.958;2023-06-04T10:25:21;2.78;;;1.10;;
17228;SDS011;8731;50.364;8.958;2023-06-04T10:29:45;1.80;;;1.30;;
17228;SDS011;8731;50.364;8.958;2023-06-04T10:34:08;1.52;;;1.30;;
17228;SDS011;8731;50.364;8.958;2023-06-04T10:38:32;2.53;;;1.40;;
17228;SDS011;8731;50.364;8.958;2023-06-04T10:42:54;2.33;;;1.17;;
17228;SDS011;8731;50.364;8.958;2023-06-04T10:47:20;3.72;;;1.20;;
17228;SDS011;8731;50.364;8.958;2023-06-04T10:51:45;2.00;;;1.00;;
17228;SDS011;8731;50.364;8.958;2023-06-04T10:56:08;2.55;;;1.27;;
17228;SDS011;8731;50.364;8.958;2023-06-04T11:00:35;2.42;;;1.33;;
17228;SDS011;8731;50.364;8.958;2023-06-04T11:05:00;1.83;;;1.30;;
17228;SDS011;8731;50.364;8.958;2023-06-04T11:09:26;2.90;;;1.70;;
17228;SDS011;8731;50.364;8.958;2023-06-04T11:13:50;5.28;;;1.20;;
17228;SDS011;8731;50.364;8.958;2023-06-04T11:18:15;3.28;;;1.27;;
17228;SDS011;8731;50.364;8.958;2023-06-04T11:22:42;2.10;;;1.50;;
17228;SDS011;8731;50.364;8.958;2023-06-04T11:27:11;2.73;;;1.30;;
17228;SDS011;8731;50.364;8.958;2023-06-04T11:31:41;2.47;;;1.47;;
17228;SDS011;8731;50.364;8.958;2023-06-04T11:36:04;2.83;;;1.63;;
17228;SDS011;8731;50.364;8.958;2023-06-04T11:40:27;3.57;;;1.57;;
17228;SDS011;8731;50.364;8.958;2023-06-04T11:44:54;1.93;;;1.70;;
17228;SDS011;8731;50.364;8.958;2023-06-04T11:49:19;3.00;;;1.60;;
17228;SDS011;8731;50.364;8.958;2023-06-04T11:53:42;2.17;;;1.53;;
17228;SDS011;8731;50.364;8.958;2023-06-04T11:58:05;3.43;;;1.50;;
17228;SDS011;8731;50.364;8.958;2023-06-04T12:02:28;4.33;;;1.80;;
17228;SDS011;8731;50.364;8.958;2023-06-04T12:06:52;3.13;;;1.97;;
17228;SDS011;8731;50.364;8.958;2023-06-04T12:11:24;2.30;;;1.37;;
17228;SDS011;8731;50.364;8.958;2023-06-04T12:15:51;3.03;;;1.57;;
17228;SDS011;8731;50.364;8.958;2023-06-04T12:20:14;5.70;;;1.87;;
17228;SDS011;8731;50.364;8.958;2023-06-04T12:24:47;1.93;;;1.53;;
17228;SDS011;8731;50.364;8.958;2023-06-04T12:29:13;2.67;;;1.50;;
17228;SDS011;8731;50.364;8.958;2023-06-04T12:33:40;4.60;;;1.87;;
17228;SDS011;8731;50.364;8.958;2023-06-04T12:38:04;4.17;;;1.77;;
17228;SDS011;8731;50.364;8.958;2023-06-04T12:42:30;2.17;;;1.80;;
17228;SDS011;8731;50.364;8.958;2023-06-04T12:46:53;3.87;;;1.80;;
17228;SDS011;8731;50.364;8.958;2023-06-04T12:51:15;1.73;;;1.60;;
17228;SDS011;8731;50.364;8.958;2023-06-04T12:55:38;2.53;;;2.20;;
17228;SDS011;8731;50.364;8.958;2023-06-04T13:00:02;2.10;;;1.80;;
17228;SDS011;8731;50.364;8.958;2023-06-04T13:04:27;2.60;;;1.60;;
17228;SDS011;8731;50.364;8.958;2023-06-04T13:08:49;3.83;;;2.00;;
17228;SDS011;8731;50.364;8.958;2023-06-04T13:13:12;2.53;;;1.90;;
17228;SDS011;8731;50.364;8.958;2023-06-04T13:17:37;3.03;;;1.90;;
17228;SDS011;8731;50.364;8.958;2023-06-04T13:22:00;3.13;;;1.93;;
17228;SDS011;8731;50.364;8.958;2023-06-04T13:26:26;2.37;;;1.90;;
17228;SDS011;8731;50.364;8.958;2023-06-04T13:30:49;3.00;;;2.10;;
17228;SDS011;8731;50.364;8.958;2023-06-04T13:35:13;2.60;;;2.03;;
17228;SDS011;8731;50.364;8.958;2023-06-04T13:39:35;2.60;;;2.40;;
17228;SDS011;8731;50.364;8.958;2023-06-04T13:43:59;5.83;;;5.00;;
17228;SDS011;8731;50.364;8.958;2023-06-04T13:48:21;5.73;;;3.90;;
17228;SDS011;8731;50.364;8.958;2023-06-04T13:52:45;2.80;;;2.43;;
17228;SDS011;8731;50.364;8.958;2023-06-04T13:57:08;4.07;;;2.60;;
17228;SDS011;8731;50.364;8.958;2023-06-04T14:01:32;4.87;;;2.33;;
17228;SDS011;8731;50.364;8.958;2023-06-04T14:05:55;2.90;;;2.60;;
17228;SDS011;8731;50.364;8.958;2023-06-04T14:10:19;5.40;;;3.00;;
17228;SDS011;8731;50.364;8.958;2023-06-04T14:14:42;3.73;;;2.87;;
17228;SDS011;8731;50.364;8.958;2023-06-04T14:19:04;2.93;;;2.73;;
17228;SDS011;8731;50.364;8.958;2023-06-04T14:23:28;5.07;;;3.00;;
17228;SDS011;8731;50.364;8.958;2023-06-04T14:27:52;3.37;;;3.07;;
17228;SDS011;8731;50.364;8.958;2023-06-04T14:32:18;4.13;;;3.20;;
17228;SDS011;8731;50.364;8.958;2023-06-04T14:36:42;3.93;;;3.40;;
17228;SDS011;8731;50.364;8.958;2023-06-04T14:41:04;3.60;;;3.10;;
17228;SDS011;8731;50.364;8.958;2023-06-04T14:45:28;3.60;;;3.30;;
17228;SDS011;8731;50.364;8.958;2023-06-04T14:49:51;5.57;;;3.00;;
17228;SDS011;8731;50.364;8.958;2023-06-04T14:54:14;5.73;;;3.33;;
17228;SDS011;8731;50.364;8.958;2023-06-04T14:58:36;4.67;;;3.17;;
17228;SDS011;8731;50.364;8.958;2023-06-04T15:03:02;4.40;;;3.20;;
17228;SDS011;8731;50.364;8.958;2023-06-04T15:07:26;3.50;;;3.20;;
17228;SDS011;8731;50.364;8.958;2023-06-04T15:11:48;5.83;;;3.13;;
17228;SDS011;8731;50.364;8.958;2023-06-04T15:16:11;6.03;;;2.73;;
17228;SDS011;8731;50.364;8.958;2023-06-04T15:20:35;3.53;;;2.63;;
17228;SDS011;8731;50.364;8.958;2023-06-04T15:24:58;2.80;;;2.60;;
17228;SDS011;8731;50.364;8.958;2023-06-04T15:29:20;4.63;;;3.10;;
17228;SDS011;8731;50.364;8.958;2023-06-04T15:33:42;4.23;;;2.90;;
17228;SDS011;8731;50.364;8.958;2023-06-04T15:38:07;5.20;;;2.60;;
17228;SDS011;8731;50.364;8.958;2023-06-04T15:42:31;2.70;;;2.40;;
17228;SDS011;8731;50.364;8.958;2023-06-04T15:46:53;3.97;;;2.50;;
17228;SDS011;8731;50.364;8.958;2023-06-04T15:51:16;2.50;;;2.30;;
17228;SDS011;8731;50.364;8.958;2023-06-04T15:55:40;7.83;;;2.17;;
17228;SDS011;8731;50.364;8.958;2023-06-04T16:00:03;3.77;;;2.37;;
17228;SDS011;8731;50.364;8.958;2023-06-04T16:04:26;3.80;;;2.33;;
17228;SDS011;8731;50.364;8.958;2023-06-04T16:08:50;3.10;;;2.43;;
17228;SDS011;8731;50.364;8.958;2023-06-04T16:13:19;2.60;;;1.80;;
17228;SDS011;8731;50.364;8.958;2023-06-04T16:17:46;2.63;;;1.90;;
17228;SDS011;8731;50.364;8.958;2023-06-04T16:22:08;5.63;;;2.30;;
17228;SDS011;8731;50.364;8.958;2023-06-04T16:26:31;4.27;;;2.60;;
17228;SDS011;8731;50.364;8.958;2023-06-04T16:30:55;3.00;;;2.37;;
17228;SDS011;8731;50.364;8.958;2023-06-04T16:35:18;3.70;;;1.97;;
17228;SDS011;8731;50.364;8.958;2023-06-04T16:39:40;4.07;;;1.80;;
17228;SDS011;8731;50.364;8.958;2023-06-04T16:44:03;4.10;;;2.00;;
17228;SDS011;8731;50.364;8.958;2023-06-04T16:48:26;3.43;;;1.90;;
17228;SDS011;8731;50.364;8.958;2023-06-04T16:52:49;2.33;;;1.90;;
17228;SDS011;8731;50.364;8.958;2023-06-04T16:57:12;3.13;;;2.80;;
17228;SDS011;8731;50.364;8.958;2023-06-04T17:01:34;2.83;;;1.90;;
17228;SDS011;8731;50.364;8.958;2023-06-04T17:06:02;2.10;;;1.60;;
17228;SDS011;8731;50.364;8.958;2023-06-04T17:10:28;4.03;;;1.70;;
17228;SDS011;8731;50.364;8.958;2023-06-04T17:14:52;3.60;;;1.90;;
17228;SDS011;8731;50.364;8.958;2023-06-04T17:19:16;3.40;;;1.70;;
17228;SDS011;8731;50.364;8.958;2023-06-04T17:23:43;2.50;;;1.67;;
17228;SDS011;8731;50.364;8.958;2023-06-04T17:28:08;2.80;;;1.30;;
17228;SDS011;8731;50.364;8.958;2023-06-04T17:32:30;2.13;;;1.60;;
17228;SDS011;8731;50.364;8.958;2023-06-04T17:36:53;2.53;;;1.67;;
17228;SDS011;8731;50.364;8.958;2023-06-04T17:41:17;3.03;;;1.43;;
17228;SDS011;8731;50.364;8.958;2023-06-04T17:45:40;3.13;;;1.50;;
17228;SDS011;8731;50.364;8.958;2023-06-04T17:50:04;2.20;;;1.63;;
17228;SDS011;8731;50.364;8.958;2023-06-04T17:54:28;2.70;;;1.63;;
17228;SDS011;8731;50.364;8.958;2023-06-04T17:58:52;4.30;;;1.53;;
17228;SDS011;8731;50.364;8.958;2023-06-04T18:03:15;2.00;;;1.70;;
17228;SDS011;8731;50.364;8.958;2023-06-04T18:07:38;2.80;;;1.60;;
17228;SDS011;8731;50.364;8.958;2023-06-04T18:12:02;3.23;;;1.40;;
17228;SDS011;8731;50.364;8.958;2023-06-04T18:16:31;2.77;;;1.43;;
17228;SDS011;8731;50.364;8.958;2023-06-04T18:20:54;2.30;;;1.20;;
17228;SDS011;8731;50.364;8.958;2023-06-04T18:25:16;3.77;;;1.67;;
17228;SDS011;8731;50.364;8.958;2023-06-04T18:29:39;4.00;;;1.80;;
17228;SDS011;8731;50.364;8.958;2023-06-04T18:34:04;5.10;;;1.30;;
17228;SDS011;8731;50.364;8.958;2023-06-04T18:38:28;1.60;;;1.43;;
17228;SDS011;8731;50.364;8.958;2023-06-04T18:42:53;2.53;;;1.10;;
17228;SDS011;8731;50.364;8.958;2023-06-04T18:47:16;2.00;;;1.23;;
17228;SDS011;8731;50.364;8.958;2023-06-04T18:51:41;3.30;;;1.30;;
17228;SDS011;8731;50.364;8.958;2023-06-04T18:56:03;2.37;;;1.57;;
17228;SDS011;8731;50.364;8.958;2023-06-04T19:00:26;1.87;;;1.33;;
17228;SDS011;8731;50.364;8.958;2023-06-04T19:04:49;1.80;;;1.10;;
17228;SDS011;8731;50.364;8.958;2023-06-04T19:09:14;2.60;;;1.87;;
17228;SDS011;8731;50.364;8.958;2023-06-04T19:13:36;3.60;;;1.53;;
17228;SDS011;8731;50.364;8.958;2023-06-04T19:18:01;2.33;;;1.77;;
17228;SDS011;8731;50.364;8.958;2023-06-04T19:22:24;2.43;;;2.00;;
17228;SDS011;8731;50.364;8.958;2023-06-04T19:26:48;1.90;;;1.43;;
17228;SDS011;8731;50.364;8.958;2023-06-04T19:31:11;2.37;;;1.37;;
17228;SDS011;8731;50.364;8.958;2023-06-04T19:35:33;1.90;;;1.37;;
17228;SDS011;8731;50.364;8.958;2023-06-04T19:39:56;3.27;;;1.50;;
17228;SDS011;8731;50.364;8.958;2023-06-04T19:44:21;4.33;;;3.93;;
17228;SDS011;8731;50.364;8.958;2023-06-04T19:48:44;1.67;;;1.40;;
17228;SDS011;8731;50.364;8.958;2023-06-04T19:53:06;3.30;;;1.40;;
17228;SDS011;8731;50.364;8.958;2023-06-04T19:57:29;2.80;;;1.37;;
17228;SDS011;8731;50.364;8.958;2023-06-04T20:01:53;2.30;;;1.30;;
17228;SDS011;8731;50.364;8.958;2023-06-04T20:06:15;2.33;;;1.40;;
17228;SDS011;8731;50.364;8.958;2023-06-04T20:10:38;2.83;;;1.47;;
17228;SDS011;8731;50.364;8.958;2023-06-04T20:15:01;3.23;;;1.53;;
17228;SDS011;8731;50.364;8.958;2023-06-04T20:19:27;4.43;;;1.37;;
17228;SDS011;8731;50.364;8.958;2023-06-04T20:23:50;2.40;;;1.30;;
17228;SDS011;8731;50.364;8.958;2023-06-04T20:28:14;2.23;;;1.20;;
17228;SDS011;8731;50.364;8.958;2023-06-04T20:32:37;2.80;;;1.53;;
17228;SDS011;8731;50.364;8.958;2023-06-04T20:37:02;2.03;;;1.20;;
17228;SDS011;8731;50.364;8.958;2023-06-04T20:41:25;4.00;;;1.70;;
17228;SDS011;8731;50.364;8.958;2023-06-04T20:45:47;2.77;;;1.40;;
17228;SDS011;8731;50.364;8.958;2023-06-04T20:50:12;3.23;;;1.40;;
17228;SDS011;8731;50.364;8.958;2023-06-04T20:54:36;3.27;;;1.50;;
17228;SDS011;8731;50.364;8.958;2023-06-04T20:58:58;2.17;;;1.37;;
17228;SDS011;8731;50.364;8.958;2023-06-04T21:03:22;1.53;;;1.33;;
17228;SDS011;8731;50.364;8.958;2023-06-04T21:07:47;1.70;;;1.23;;
17228;SDS011;8731;50.364;8.958;2023-06-04T21:12:11;2.70;;;1.60;;
17228;SDS011;8731;50.364;8.958;2023-06-04T21:16:33;3.13;;;1.30;;
17228;SDS011;8731;50.364;8.958;2023-06-04T21:20:56;2.10;;;1.13;;
17228;SDS011;8731;50.364;8.958;2023-06-04T21:25:19;2.03;;;1.17;;
17228;SDS011;8731;50.364;8.958;2023-06-04T21:29:43;3.57;;;1.20;;
17228;SDS011;8731;50.364;8.958;2023-06-04T21:34:06;4.77;;;1.23;;
17228;SDS011;8731;50.364;8.958;2023-06-04T21:38:30;3.07;;;1.40;;
17228;SDS011;8731;50.364;8.958;2023-06-04T21:42:53;1.00;;;0.90;;
17228;SDS011;8731;50.364;8.958;2023-06-04T21:47:17;1.63;;;1.03;;
17228;SDS011;8731;50.364;8.958;2023-06-04T21:51:39;2.37;;;1.47;;
17228;SDS011;8731;50.364;8.958;2023-06-04T21:56:02;2.00;;;1.30;;
17228;SDS011;8731;50.364;8.958;2023-06-04T22:00:24;2.93;;;1.30;;
17228;SDS011;8731;50.364;8.958;2023-06-04T22:04:49;3.37;;;1.40;;
17228;SDS011;8731;50.364;8.958;2023-06-04T22:09:11;2.97;;;1.20;;
17228;SDS011;8731;50.364;8.958;2023-06-04T22:13:34;2.07;;;1.27;;
17228;SDS011;8731;50.364;8.958;2023-06-04T22:17:57;1.53;;;1.07;;
17228;SDS011;8731;50.364;8.958;2023-06-04T22:22:21;1.80;;;1.20;;
17228;SDS011;8731;50.364;8.958;2023-06-04T22:26:43;1.60;;;1.10;;
17228;SDS011;8731;50.364;8.958;2023-06-04T22:31:06;3.87;;;1.00;;
17228;SDS011;8731;50.364;8.958;2023-06-04T22:35:29;2.73;;;1.10;;
17228;SDS011;8731;50.364;8.958;2023-06-04T22:39:56;1.60;;;1.10;;
17228;SDS011;8731;50.364;8.958;2023-06-04T22:44:20;1.77;;;1.40;;
17228;SDS011;8731;50.364;8.958;2023-06-04T22:48:43;4.47;;;1.33;;
17228;SDS011;8731;50.364;8.958;2023-06-04T22:53:06;2.13;;;0.93;;
17228;SDS011;8731;50.364;8.958;2023-06-04T22:57:30;1.23;;;1.00;;
17228;SDS011;8731;50.364;8.958;2023-06-04T23:01:52;1.70;;;1.07;;
17228;SDS011;8731;50.364;8.958;2023-06-04T23:06:15;2.03;;;1.27;;
17228;SDS011;8731;50.364;8.958;2023-06-04T23:10:37;2.07;;;1.30;;
17228;SDS011;8731;50.364;8.958;2023-06-04T23:15:01;1.20;;;1.00;;
17228;SDS011;8731;50.364;8.958;2023-06-04T23:25:26;2.33;;;1.40;;
17228;SDS011;8731;50.364;8.958;2023-06-04T23:29:49;3.07;;;1.50;;
17228;SDS011;8731;50.364;8.958;2023-06-04T23:34:13;1.73;;;1.20;;
17228;SDS011;8731;50.364;8.958;2023-06-04T23:38:35;1.97;;;1.50;;
17228;SDS011;8731;50.364;8.958;2023-06-04T23:42:58;2.33;;;1.40;;
17228;SDS011;8731;50.364;8.958;2023-06-04T23:47:20;3.03;;;1.50;;
17228;SDS011;8731;50.364;8.958;2023-06-04T23:51:45;2.67;;;1.73;;
17228;SDS011;8731;50.364;8.958;2023-06-04T23:56:07;3.80;;;1.40;;
